sensor_id;sensor_type;location;lat;lon;timestamp;P1;durP1;ratioP1;P2;durP2;ratioP2
24381;SDS011;12502;50.678;7.172;2022-08-07T00:01:00;2.47;;;1.60;;
24381;SDS011;12502;50.678;7.172;2022-08-07T00:06:22;4.25;;;2.03;;
24381;SDS011;12502;50.678;7.172;2022-08-07T00:11:33;5.07;;;1.88;;
24381;SDS011;12502;50.678;7.172;2022-08-07T00:16:48;2.22;;;1.92;;
24381;SDS011;12502;50.678;7.172;2022-08-07T00:21:50;4.15;;;1.90;;
24381;SDS011;12502;50.678;7.172;2022-08-07T00:27:02;2.17;;;1.70;;
24381;SDS011;12502;50.678;7.172;2022-08-07T00:32:07;2.83;;;2.00;;
24381;SDS011;12502;50.678;7.172;2022-08-07T00:37:14;2.90;;;1.83;;
24381;SDS011;12502;50.678;7.172;2022-08-07T00:42:16;2.85;;;1.60;;
24381;SDS011;12502;50.678;7.172;2022-08-07T00:47:29;2.10;;;1.65;;
24381;SDS011;12502;50.678;7.172;2022-08-07T00:52:51;1.40;;;1.30;;
24381;SDS011;12502;50.678;7.172;2022-08-07T00:57:53;2.70;;;1.83;;
24381;SDS011;12502;50.678;7.172;2022-08-07T01:02:56;1.65;;;1.20;;
24381;SDS011;12502;50.678;7.172;2022-08-07T01:07:58;3.58;;;1.60;;
24381;SDS011;12502;50.678;7.172;2022-08-07T01:13:00;3.50;;;1.55;;
24381;SDS011;12502;50.678;7.172;2022-08-07T01:18:03;2.10;;;1.70;;
24381;SDS011;12502;50.678;7.172;2022-08-07T01:23:09;2.20;;;1.70;;
24381;SDS011;12502;50.678;7.172;2022-08-07T01:28:13;3.43;;;1.60;;
24381;SDS011;12502;50.678;7.172;2022-08-07T01:33:15;1.85;;;1.55;;
24381;SDS011;12502;50.678;7.172;2022-08-07T01:38:17;4.38;;;2.10;;
24381;SDS011;12502;50.678;7.172;2022-08-07T01:43:26;2.22;;;1.70;;
24381;SDS011;12502;50.678;7.172;2022-08-07T01:48:41;2.40;;;1.60;;
24381;SDS011;12502;50.678;7.172;2022-08-07T01:53:57;4.18;;;2.28;;
24381;SDS011;12502;50.678;7.172;2022-08-07T01:59:14;3.60;;;2.05;;
24381;SDS011;12502;50.678;7.172;2022-08-07T02:04:29;5.63;;;2.20;;
24381;SDS011;12502;50.678;7.172;2022-08-07T02:09:40;2.83;;;1.67;;
24381;SDS011;12502;50.678;7.172;2022-08-07T02:14:54;3.63;;;1.90;;
24381;SDS011;12502;50.678;7.172;2022-08-07T02:19:57;2.97;;;1.83;;
24381;SDS011;12502;50.678;7.172;2022-08-07T02:25:08;4.05;;;1.90;;
24381;SDS011;12502;50.678;7.172;2022-08-07T02:30:17;2.50;;;2.05;;
24381;SDS011;12502;50.678;7.172;2022-08-07T02:35:19;4.63;;;2.08;;
24381;SDS011;12502;50.678;7.172;2022-08-07T02:40:43;2.65;;;1.90;;
24381;SDS011;12502;50.678;7.172;2022-08-07T02:45:46;2.87;;;1.70;;
24381;SDS011;12502;50.678;7.172;2022-08-07T02:51:05;2.72;;;2.00;;
24381;SDS011;12502;50.678;7.172;2022-08-07T02:56:33;3.33;;;1.85;;
24381;SDS011;12502;50.678;7.172;2022-08-07T03:01:39;1.88;;;1.67;;
24381;SDS011;12502;50.678;7.172;2022-08-07T03:06:47;4.20;;;1.92;;
24381;SDS011;12502;50.678;7.172;2022-08-07T03:11:50;3.72;;;1.70;;
24381;SDS011;12502;50.678;7.172;2022-08-07T03:17:02;4.78;;;1.70;;
24381;SDS011;12502;50.678;7.172;2022-08-07T03:22:09;2.30;;;2.00;;
24381;SDS011;12502;50.678;7.172;2022-08-07T03:27:19;2.55;;;1.85;;
24381;SDS011;12502;50.678;7.172;2022-08-07T03:32:38;3.75;;;2.28;;
24381;SDS011;12502;50.678;7.172;2022-08-07T03:37:59;1.90;;;1.70;;
24381;SDS011;12502;50.678;7.172;2022-08-07T03:43:05;3.33;;;1.95;;
24381;SDS011;12502;50.678;7.172;2022-08-07T03:48:14;2.20;;;1.80;;
24381;SDS011;12502;50.678;7.172;2022-08-07T03:53:16;2.80;;;2.03;;
24381;SDS011;12502;50.678;7.172;2022-08-07T03:58:20;1.88;;;1.77;;
24381;SDS011;12502;50.678;7.172;2022-08-07T04:03:43;2.40;;;1.70;;
24381;SDS011;12502;50.678;7.172;2022-08-07T04:08:55;2.58;;;1.88;;
24381;SDS011;12502;50.678;7.172;2022-08-07T04:13:58;6.07;;;1.92;;
24381;SDS011;12502;50.678;7.172;2022-08-07T04:19:21;7.80;;;2.00;;
24381;SDS011;12502;50.678;7.172;2022-08-07T04:24:45;2.50;;;1.60;;
24381;SDS011;12502;50.678;7.172;2022-08-07T04:29:50;3.25;;;2.10;;
24381;SDS011;12502;50.678;7.172;2022-08-07T04:35:03;3.30;;;1.92;;
24381;SDS011;12502;50.678;7.172;2022-08-07T04:40:11;2.13;;;1.90;;
24381;SDS011;12502;50.678;7.172;2022-08-07T04:45:14;5.07;;;1.77;;
24381;SDS011;12502;50.678;7.172;2022-08-07T04:50:40;3.10;;;2.20;;
24381;SDS011;12502;50.678;7.172;2022-08-07T04:55:58;3.75;;;2.05;;
24381;SDS011;12502;50.678;7.172;2022-08-07T05:02:01;1.90;;;1.65;;
24381;SDS011;12502;50.678;7.172;2022-08-07T05:07:21;5.80;;;2.55;;
24381;SDS011;12502;50.678;7.172;2022-08-07T05:18:31;3.50;;;2.25;;
24381;SDS011;12502;50.678;7.172;2022-08-07T05:23:37;5.45;;;2.22;;
24381;SDS011;12502;50.678;7.172;2022-08-07T05:28:42;2.97;;;2.30;;
24381;SDS011;12502;50.678;7.172;2022-08-07T05:33:50;3.10;;;1.85;;
24381;SDS011;12502;50.678;7.172;2022-08-07T05:39:05;2.95;;;2.13;;
24381;SDS011;12502;50.678;7.172;2022-08-07T05:44:29;2.03;;;1.83;;
24381;SDS011;12502;50.678;7.172;2022-08-07T05:49:35;2.55;;;2.30;;
24381;SDS011;12502;50.678;7.172;2022-08-07T05:54:41;2.53;;;2.33;;
24381;SDS011;12502;50.678;7.172;2022-08-07T05:59:54;5.65;;;2.60;;
24381;SDS011;12502;50.678;7.172;2022-08-07T06:10:04;3.42;;;2.33;;
24381;SDS011;12502;50.678;7.172;2022-08-07T06:15:15;5.10;;;2.45;;
24381;SDS011;12502;50.678;7.172;2022-08-07T06:20:19;5.60;;;2.53;;
24381;SDS011;12502;50.678;7.172;2022-08-07T06:25:32;3.40;;;2.58;;
24381;SDS011;12502;50.678;7.172;2022-08-07T06:30:37;3.92;;;2.78;;
24381;SDS011;12502;50.678;7.172;2022-08-07T06:35:46;3.92;;;2.25;;
24381;SDS011;12502;50.678;7.172;2022-08-07T06:41:29;3.53;;;2.45;;
24381;SDS011;12502;50.678;7.172;2022-08-07T06:46:55;3.88;;;2.42;;
24381;SDS011;12502;50.678;7.172;2022-08-07T06:52:15;2.38;;;2.15;;
24381;SDS011;12502;50.678;7.172;2022-08-07T06:57:32;3.65;;;2.33;;
24381;SDS011;12502;50.678;7.172;2022-08-07T07:02:51;3.47;;;2.03;;
24381;SDS011;12502;50.678;7.172;2022-08-07T07:07:58;4.35;;;2.30;;
24381;SDS011;12502;50.678;7.172;2022-08-07T07:13:15;3.47;;;1.98;;
24381;SDS011;12502;50.678;7.172;2022-08-07T07:18:41;5.10;;;1.90;;
24381;SDS011;12502;50.678;7.172;2022-08-07T07:23:48;4.32;;;2.10;;
24381;SDS011;12502;50.678;7.172;2022-08-07T07:29:11;2.55;;;1.83;;
24381;SDS011;12502;50.678;7.172;2022-08-07T07:34:35;3.30;;;1.67;;
24381;SDS011;12502;50.678;7.172;2022-08-07T07:39:42;1.55;;;1.45;;
24381;SDS011;12502;50.678;7.172;2022-08-07T07:44:55;2.58;;;1.50;;
24381;SDS011;12502;50.678;7.172;2022-08-07T07:50:00;1.40;;;1.20;;
24381;SDS011;12502;50.678;7.172;2022-08-07T07:55:22;2.28;;;1.30;;
24381;SDS011;12502;50.678;7.172;2022-08-07T08:00:38;1.60;;;1.00;;
24381;SDS011;12502;50.678;7.172;2022-08-07T08:05:45;1.58;;;0.88;;
24381;SDS011;12502;50.678;7.172;2022-08-07T08:10:55;1.27;;;1.00;;
24381;SDS011;12502;50.678;7.172;2022-08-07T08:15:58;1.27;;;0.90;;
24381;SDS011;12502;50.678;7.172;2022-08-07T08:21:03;1.30;;;1.00;;
24381;SDS011;12502;50.678;7.172;2022-08-07T08:31:30;4.80;;;1.00;;
24381;SDS011;12502;50.678;7.172;2022-08-07T08:36:56;3.67;;;1.15;;
24381;SDS011;12502;50.678;7.172;2022-08-07T08:42:01;1.98;;;0.80;;
24381;SDS011;12502;50.678;7.172;2022-08-07T08:52:26;2.05;;;1.00;;
24381;SDS011;12502;50.678;7.172;2022-08-07T08:57:43;2.63;;;1.30;;
24381;SDS011;12502;50.678;7.172;2022-08-07T09:02:55;3.75;;;1.00;;
24381;SDS011;12502;50.678;7.172;2022-08-07T09:13:38;2.15;;;1.10;;
24381;SDS011;12502;50.678;7.172;2022-08-07T09:19:01;1.35;;;0.80;;
24381;SDS011;12502;50.678;7.172;2022-08-07T09:41:02;2.42;;;0.60;;
24381;SDS011;12502;50.678;7.172;2022-08-07T10:02:52;1.60;;;0.60;;
24381;SDS011;12502;50.678;7.172;2022-08-07T10:14:24;0.55;;;0.55;;
24381;SDS011;12502;50.678;7.172;2022-08-07T10:19:34;1.17;;;0.70;;
24381;SDS011;12502;50.678;7.172;2022-08-07T10:36:14;0.75;;;0.60;;
24381;SDS011;12502;50.678;7.172;2022-08-07T10:41:34;0.93;;;0.60;;
24381;SDS011;12502;50.678;7.172;2022-08-07T10:47:04;1.20;;;1.00;;
24381;SDS011;12502;50.678;7.172;2022-08-07T10:52:50;2.92;;;0.73;;
24381;SDS011;12502;50.678;7.172;2022-08-07T10:58:25;7.70;;;5.18;;
24381;SDS011;12502;50.678;7.172;2022-08-07T11:09:39;0.93;;;0.70;;
24381;SDS011;12502;50.678;7.172;2022-08-07T11:15:08;2.63;;;0.65;;
24381;SDS011;12502;50.678;7.172;2022-08-07T11:20:18;0.98;;;0.55;;
24381;SDS011;12502;50.678;7.172;2022-08-07T11:30:32;1.40;;;0.60;;
24381;SDS011;12502;50.678;7.172;2022-08-07T12:16:30;1.92;;;0.70;;
24381;SDS011;12502;50.678;7.172;2022-08-07T12:27:20;1.20;;;0.80;;
24381;SDS011;12502;50.678;7.172;2022-08-07T12:32:46;2.70;;;0.73;;
24381;SDS011;12502;50.678;7.172;2022-08-07T12:37:54;1.60;;;0.70;;
24381;SDS011;12502;50.678;7.172;2022-08-07T12:43:18;2.38;;;0.80;;
24381;SDS011;12502;50.678;7.172;2022-08-07T12:48:50;0.80;;;0.70;;
24381;SDS011;12502;50.678;7.172;2022-08-07T12:54:39;1.77;;;0.70;;
24381;SDS011;12502;50.678;7.172;2022-08-07T13:00:06;1.15;;;0.63;;
24381;SDS011;12502;50.678;7.172;2022-08-07T13:11:09;1.60;;;0.93;;
24381;SDS011;12502;50.678;7.172;2022-08-07T13:16:34;0.82;;;0.82;;
24381;SDS011;12502;50.678;7.172;2022-08-07T13:22:00;0.60;;;0.60;;
24381;SDS011;12502;50.678;7.172;2022-08-07T13:27:38;3.50;;;0.85;;
24381;SDS011;12502;50.678;7.172;2022-08-07T13:43:42;2.25;;;0.85;;
24381;SDS011;12502;50.678;7.172;2022-08-07T13:48:55;1.80;;;0.70;;
24381;SDS011;12502;50.678;7.172;2022-08-07T13:54:02;1.00;;;0.80;;
24381;SDS011;12502;50.678;7.172;2022-08-07T13:59:23;2.65;;;0.73;;
24381;SDS011;12502;50.678;7.172;2022-08-07T14:04:27;3.35;;;0.65;;
24381;SDS011;12502;50.678;7.172;2022-08-07T14:09:38;1.40;;;0.60;;
24381;SDS011;12502;50.678;7.172;2022-08-07T14:15:05;1.98;;;0.90;;
24381;SDS011;12502;50.678;7.172;2022-08-07T14:20:20;2.25;;;0.70;;
24381;SDS011;12502;50.678;7.172;2022-08-07T14:25:45;0.70;;;0.70;;
24381;SDS011;12502;50.678;7.172;2022-08-07T14:30:54;1.77;;;0.68;;
24381;SDS011;12502;50.678;7.172;2022-08-07T14:35:57;2.05;;;0.90;;
24381;SDS011;12502;50.678;7.172;2022-08-07T14:41:06;3.40;;;0.88;;
24381;SDS011;12502;50.678;7.172;2022-08-07T14:46:15;1.15;;;0.60;;
24381;SDS011;12502;50.678;7.172;2022-08-07T14:51:31;1.42;;;0.60;;
24381;SDS011;12502;50.678;7.172;2022-08-07T14:56:53;2.30;;;0.57;;
24381;SDS011;12502;50.678;7.172;2022-08-07T15:02:03;0.57;;;0.57;;
24381;SDS011;12502;50.678;7.172;2022-08-07T15:07:34;4.28;;;0.73;;
24381;SDS011;12502;50.678;7.172;2022-08-07T15:12:55;1.50;;;0.77;;
24381;SDS011;12502;50.678;7.172;2022-08-07T15:18:01;4.53;;;0.60;;
24381;SDS011;12502;50.678;7.172;2022-08-07T15:23:29;1.30;;;0.70;;
24381;SDS011;12502;50.678;7.172;2022-08-07T15:28:54;2.95;;;0.82;;
24381;SDS011;12502;50.678;7.172;2022-08-07T15:34:18;1.25;;;0.52;;
24381;SDS011;12502;50.678;7.172;2022-08-07T15:39:26;1.58;;;0.70;;
24381;SDS011;12502;50.678;7.172;2022-08-07T15:44:49;2.17;;;0.60;;
24381;SDS011;12502;50.678;7.172;2022-08-07T15:50:13;0.95;;;0.40;;
24381;SDS011;12502;50.678;7.172;2022-08-07T15:55:39;1.02;;;0.40;;
24381;SDS011;12502;50.678;7.172;2022-08-07T16:01:04;0.85;;;0.40;;
24381;SDS011;12502;50.678;7.172;2022-08-07T16:06:12;0.70;;;0.50;;
24381;SDS011;12502;50.678;7.172;2022-08-07T16:11:23;0.40;;;0.40;;
24381;SDS011;12502;50.678;7.172;2022-08-07T16:17:06;2.40;;;1.48;;
24381;SDS011;12502;50.678;7.172;2022-08-07T16:34:21;1.67;;;0.50;;
24381;SDS011;12502;50.678;7.172;2022-08-07T16:45:09;1.13;;;0.90;;
24381;SDS011;12502;50.678;7.172;2022-08-07T16:51:03;1.10;;;0.50;;
24381;SDS011;12502;50.678;7.172;2022-08-07T17:13:26;0.65;;;0.60;;
24381;SDS011;12502;50.678;7.172;2022-08-07T17:18:31;0.93;;;0.52;;
24381;SDS011;12502;50.678;7.172;2022-08-07T17:40:44;1.52;;;0.65;;
24381;SDS011;12502;50.678;7.172;2022-08-07T17:46:20;0.65;;;0.50;;
24381;SDS011;12502;50.678;7.172;2022-08-07T17:51:43;0.82;;;0.50;;
24381;SDS011;12502;50.678;7.172;2022-08-07T18:02:59;1.80;;;0.70;;
24381;SDS011;12502;50.678;7.172;2022-08-07T18:08:12;2.83;;;0.80;;
24381;SDS011;12502;50.678;7.172;2022-08-07T18:18:51;1.48;;;0.60;;
24381;SDS011;12502;50.678;7.172;2022-08-07T18:30:10;2.05;;;0.98;;
24381;SDS011;12502;50.678;7.172;2022-08-07T18:51:33;2.15;;;0.73;;
24381;SDS011;12502;50.678;7.172;2022-08-07T18:57:08;2.45;;;0.85;;
24381;SDS011;12502;50.678;7.172;2022-08-07T19:18:58;1.20;;;0.73;;
24381;SDS011;12502;50.678;7.172;2022-08-07T19:24:05;0.70;;;0.60;;
24381;SDS011;12502;50.678;7.172;2022-08-07T19:29:31;2.30;;;0.80;;
24381;SDS011;12502;50.678;7.172;2022-08-07T19:35:01;3.70;;;0.80;;
24381;SDS011;12502;50.678;7.172;2022-08-07T19:40:06;2.50;;;1.00;;
24381;SDS011;12502;50.678;7.172;2022-08-07T19:45:14;1.50;;;1.20;;
24381;SDS011;12502;50.678;7.172;2022-08-07T19:50:43;1.17;;;0.98;;
24381;SDS011;12502;50.678;7.172;2022-08-07T19:55:53;2.42;;;0.88;;
24381;SDS011;12502;50.678;7.172;2022-08-07T20:00:58;1.77;;;0.90;;
24381;SDS011;12502;50.678;7.172;2022-08-07T20:06:02;1.93;;;0.93;;
24381;SDS011;12502;50.678;7.172;2022-08-07T20:11:15;3.15;;;1.20;;
24381;SDS011;12502;50.678;7.172;2022-08-07T20:16:40;1.88;;;1.20;;
24381;SDS011;12502;50.678;7.172;2022-08-07T20:21:55;2.63;;;1.23;;
24381;SDS011;12502;50.678;7.172;2022-08-07T20:27:02;2.33;;;1.10;;
24381;SDS011;12502;50.678;7.172;2022-08-07T20:32:08;2.92;;;1.08;;
24381;SDS011;12502;50.678;7.172;2022-08-07T20:37:35;3.08;;;1.10;;
24381;SDS011;12502;50.678;7.172;2022-08-07T20:42:58;1.80;;;1.10;;
24381;SDS011;12502;50.678;7.172;2022-08-07T20:48:02;2.47;;;1.13;;
24381;SDS011;12502;50.678;7.172;2022-08-07T20:53:10;3.50;;;1.33;;
24381;SDS011;12502;50.678;7.172;2022-08-07T20:58:15;2.38;;;1.30;;
24381;SDS011;12502;50.678;7.172;2022-08-07T21:03:26;4.18;;;1.40;;
24381;SDS011;12502;50.678;7.172;2022-08-07T21:08:31;3.08;;;1.38;;
24381;SDS011;12502;50.678;7.172;2022-08-07T21:13:48;2.53;;;1.67;;
24381;SDS011;12502;50.678;7.172;2022-08-07T21:19:12;3.63;;;2.10;;
24381;SDS011;12502;50.678;7.172;2022-08-07T21:24:25;2.80;;;2.15;;
24381;SDS011;12502;50.678;7.172;2022-08-07T21:35:05;3.78;;;2.30;;
24381;SDS011;12502;50.678;7.172;2022-08-07T21:45:54;5.53;;;2.53;;
24381;SDS011;12502;50.678;7.172;2022-08-07T22:02:00;4.90;;;3.20;;
24381;SDS011;12502;50.678;7.172;2022-08-07T22:07:15;5.88;;;3.42;;
24381;SDS011;12502;50.678;7.172;2022-08-07T22:12:26;6.40;;;3.47;;
24381;SDS011;12502;50.678;7.172;2022-08-07T22:17:52;4.63;;;3.45;;
24381;SDS011;12502;50.678;7.172;2022-08-07T22:23:00;6.03;;;3.10;;
24381;SDS011;12502;50.678;7.172;2022-08-07T22:39:03;3.65;;;2.78;;
24381;SDS011;12502;50.678;7.172;2022-08-07T22:44:13;5.32;;;2.70;;
24381;SDS011;12502;50.678;7.172;2022-08-07T22:55:03;2.30;;;1.98;;
24381;SDS011;12502;50.678;7.172;2022-08-07T23:01:17;3.35;;;2.53;;
24381;SDS011;12502;50.678;7.172;2022-08-07T23:06:17;4.03;;;2.40;;
24381;SDS011;12502;50.678;7.172;2022-08-07T23:23:01;2.25;;;1.85;;
24381;SDS011;12502;50.678;7.172;2022-08-07T23:28:16;2.83;;;2.20;;
24381;SDS011;12502;50.678;7.172;2022-08-07T23:51:30;2.05;;;1.70;;
24381;SDS011;12502;50.678;7.172;2022-08-07T23:56:55;1.95;;;1.60;;
